Wetterdaten: Woche 21.06.10 - 27.06.10 (KW25)
Datum Zeit Temp. A. Feuchte A. Luftdruck Regen Wind Richtung Taupunkt Windchill Windben
21.06.2010 00:00 7,2 C 87 % 1015,5 hPa 0,0 l/m 0,0 km/h N-NO 5,2 C 7,2 C 0,0 km/h
21.06.2010 01:00 6,4 C 88 % 1015,4 hPa 0,0 l/m 0,0 km/h O-NO 4,6 C 6,4 C 0,0 km/h
21.06.2010 02:00 6,1 C 89 % 1015,5 hPa 0,0 l/m 0,0 km/h O-NO 4,4 C 6,1 C 0,0 km/h
21.06.2010 03:00 5,6 C 90 % 1015,7 hPa 0,0 l/m 0,0 km/h O-NO 4,1 C 5,6 C 0,0 km/h
21.06.2010 04:00 5,1 C 91 % 1016,0 hPa 0,0 l/m 0,0 km/h O-SO 3,8 C 5,1 C 0,0 km/h
21.06.2010 05:00 5,4 C 91 % 1016,2 hPa 0,0 l/m 0,0 km/h SO 4,1 C 5,4 C 0,0 km/h
21.06.2010 06:00 7,1 C 92 % 1016,7 hPa 0,0 l/m 0,0 km/h SO 5,9 C 7,1 C 0,0 km/h
21.06.2010 07:00 11,9 C 93 % 1016,9 hPa 0,0 l/m 0,0 km/h W-NW 10,8 C 11,9 C 0,0 km/h
21.06.2010 08:00 21,6 C 55 % 1016,9 hPa 0,0 l/m 0,0 km/h W 12,2 C 21,6 C 0,0 km/h
21.06.2010 09:00 21,6 C 53 % 1016,8 hPa 0,0 l/m 0,6 km/h W-NW 11,6 C 21,6 C 0,4 km/h
21.06.2010 10:00 15,5 C 69 % 1016,7 hPa 0,0 l/m 1,3 km/h W 9,8 C 15,5 C 0,7 km/h
21.06.2010 11:00 16,9 C 65 % 1016,4 hPa 0,0 l/m 0,0 km/h N 10,3 C 16,9 C 0,0 km/h
21.06.2010 12:00 18,1 C 60 % 1016,9 hPa 0,0 l/m 2,6 km/h N-NW 10,2 C 18,1 C 1,4 km/h
21.06.2010 13:00 19,9 C 54 % 1017,2 hPa 0,0 l/m 5,8 km/h N-NO 10,3 C 19,9 C 3,2 km/h
21.06.2010 14:00 16,9 C 62 % 1016,7 hPa 0,0 l/m 7,1 km/h NO 9,6 C 16,5 C 4,0 km/h
21.06.2010 15:00 20,2 C 53 % 1016,9 hPa 0,0 l/m 0,0 km/h N 10,3 C 20,2 C 0,0 km/h
21.06.2010 16:00 25,8 C 40 % 1017,0 hPa 0,0 l/m 0,0 km/h O 11,2 C 25,8 C 0,0 km/h
21.06.2010 17:00 25,3 C 36 % 1017,1 hPa 0,0 l/m 5,8 km/h O 9,1 C 25,3 C 3,2 km/h
21.06.2010 18:00 18,9 C 49 % 1017,2 hPa 0,0 l/m 0,0 km/h O-NO 7,9 C 18,9 C 0,0 km/h
21.06.2010 19:00 19,7 C 48 % 1017,5 hPa 0,0 l/m 0,0 km/h NO 8,4 C 19,7 C 0,0 km/h
21.06.2010 20:00 18,3 C 55 % 1017,9 hPa 0,0 l/m 0,0 km/h O-NO 9,1 C 18,3 C 0,0 km/h
21.06.2010 21:00 14,4 C 63 % 1018,6 hPa 0,0 l/m 0,0 km/h O 7,4 C 14,4 C 0,0 km/h
21.06.2010 22:00 12,1 C 75 % 1019,1 hPa 0,0 l/m 0,0 km/h SO 7,8 C 12,1 C 0,0 km/h
21.06.2010 23:00 9,3 C 82 % 1019,3 hPa 0,0 l/m 0,0 km/h SO 6,4 C 9,3 C 0,0 km/h
22.06.2010 00:00 9,9 C 85 % 1019,5 hPa 0,0 l/m 0,0 km/h O-SO 7,5 C 9,9 C 0,0 km/h
22.06.2010 01:00 9,9 C 86 % 1019,7 hPa 0,0 l/m 0,0 km/h SO 7,7 C 9,9 C 0,0 km/h
22.06.2010 02:00 7,5 C 88 % 1019,6 hPa 0,0 l/m 0,0 km/h SO 5,6 C 7,5 C 0,0 km/h
22.06.2010 03:00 7,0 C 89 % 1019,4 hPa 0,0 l/m 0,0 km/h SO 5,3 C 7,0 C 0,0 km/h
22.06.2010 04:00 7,3 C 90 % 1019,6 hPa 0,0 l/m 0,0 km/h N-NO 5,8 C 7,3 C 0,0 km/h
22.06.2010 05:00 6,3 C 90 % 1019,7 hPa 0,0 l/m 0,0 km/h O-NO 4,8 C 6,3 C 0,0 km/h
22.06.2010 06:00 6,5 C 91 % 1020,2 hPa 0,0 l/m 0,0 km/h O-NO 5,1 C 6,5 C 0,0 km/h
22.06.2010 07:00 8,9 C 91 % 1020,6 hPa 0,0 l/m 0,0 km/h SO 7,5 C 8,9 C 0,0 km/h
22.06.2010 08:00 20,6 C 60 % 1020,6 hPa 0,0 l/m 0,0 km/h N-NW 12,6 C 20,6 C 0,0 km/h
22.06.2010 09:00 22,0 C 50 % 1020,6 hPa 0,0 l/m 4,5 km/h W-SW 11,1 C 22,0 C 2,5 km/h
22.06.2010 10:00 24,9 C 46 % 1020,3 hPa 0,0 l/m 1,3 km/h N-NW 12,5 C 24,9 C 0,7 km/h
22.06.2010 11:00 23,1 C 45 % 1020,1 hPa 0,0 l/m 0,0 km/h N-NW 10,5 C 23,1 C 0,0 km/h
22.06.2010 12:00 20,6 C 50 % 1020,0 hPa 0,0 l/m 8,4 km/h N 9,8 C 19,8 C 4,7 km/h
22.06.2010 13:00 20,6 C 48 % 1019,8 hPa 0,0 l/m 2,6 km/h NO 9,2 C 20,6 C 1,4 km/h
22.06.2010 14:00 20,8 C 49 % 1019,8 hPa 0,0 l/m 0,0 km/h N-NO 9,7 C 20,8 C 0,0 km/h
22.06.2010 15:00 24,7 C 38 % 1019,9 hPa 0,0 l/m 0,0 km/h N-NO 9,4 C 24,7 C 0,0 km/h
22.06.2010 16:00 20,9 C 47 % 1020,0 hPa 0,0 l/m 0,0 km/h N-NW 9,2 C 20,9 C 0,0 km/h
22.06.2010 17:00 27,1 C 38 % 1020,0 hPa 0,0 l/m 3,2 km/h N-NO 11,5 C 27,1 C 1,8 km/h
22.06.2010 18:00 20,9 C 49 % 1020,1 hPa 0,0 l/m 0,0 km/h NO 9,8 C 20,9 C 0,0 km/h
22.06.2010 19:00 20,2 C 49 % 1020,1 hPa 0,0 l/m 0,0 km/h NO 9,1 C 20,2 C 0,0 km/h
22.06.2010 20:00 17,1 C 62 % 1020,5 hPa 0,0 l/m 0,0 km/h NO 9,8 C 17,1 C 0,0 km/h
22.06.2010 21:00 13,4 C 72 % 1020,5 hPa 0,0 l/m 0,0 km/h SO 8,5 C 13,4 C 0,0 km/h
22.06.2010 22:00 11,1 C 80 % 1020,9 hPa 0,0 l/m 0,0 km/h NO 7,8 C 11,1 C 0,0 km/h
22.06.2010 23:00 10,5 C 83 % 1021,0 hPa 0,0 l/m 0,0 km/h O-NO 7,7 C 10,5 C 0,0 km/h
23.06.2010 00:00 9,8 C 86 % 1020,7 hPa 0,0 l/m 0,0 km/h NO 7,6 C 9,8 C 0,0 km/h
23.06.2010 01:00 9,6 C 87 % 1020,7 hPa 0,0 l/m 0,0 km/h O-SO 7,5 C 9,6 C 0,0 km/h
23.06.2010 02:00 8,8 C 88 % 1020,5 hPa 0,0 l/m 0,0 km/h NO 6,9 C 8,8 C 0,0 km/h
23.06.2010 03:00 8,3 C 89 % 1020,4 hPa 0,0 l/m 0,0 km/h NO 6,6 C 8,3 C 0,0 km/h
23.06.2010 04:00 8,0 C 89 % 1020,2 hPa 0,0 l/m 0,0 km/h NO 6,3 C 8,0 C 0,0 km/h
23.06.2010 05:00 6,8 C 90 % 1020,1 hPa 0,0 l/m 0,0 km/h O 5,3 C 6,8 C 0,0 km/h
23.06.2010 06:00 6,9 C 91 % 1020,3 hPa 0,0 l/m 0,0 km/h W-NW 5,5 C 6,9 C 0,0 km/h
23.06.2010 07:00 9,8 C 91 % 1020,3 hPa 0,0 l/m 0,0 km/h N-NW 8,4 C 9,8 C 0,0 km/h
23.06.2010 08:00 20,4 C 60 % 1020,2 hPa 0,0 l/m 0,0 km/h W 12,4 C 20,4 C 0,0 km/h
23.06.2010 09:00 23,0 C 53 % 1020,0 hPa 0,0 l/m 0,0 km/h W-NW 12,9 C 23,0 C 0,0 km/h
23.06.2010 10:00 25,9 C 48 % 1019,4 hPa 0,0 l/m 0,0 km/h O-NO 14,0 C 25,9 C 0,0 km/h
23.06.2010 11:00 28,5 C 35 % 1019,0 hPa 0,0 l/m 0,0 km/h N 11,5 C 28,5 C 0,0 km/h
23.06.2010 12:00 26,3 C 34 % 1018,7 hPa 0,0 l/m 4,5 km/h N-NW 9,2 C 26,3 C 2,5 km/h
23.06.2010 13:00 26,6 C 34 % 1018,4 hPa 0,0 l/m 3,2 km/h O-SO 9,4 C 26,6 C 1,8 km/h
23.06.2010 14:00 25,9 C 35 % 1018,2 hPa 0,0 l/m 0,0 km/h NO 9,3 C 25,9 C 0,0 km/h
23.06.2010 15:00 30,0 C 32 % 1017,9 hPa 0,0 l/m 7,1 km/h NO 11,5 C 29,9 C 4,0 km/h
23.06.2010 16:00 31,1 C 28 % 1017,8 hPa 0,0 l/m 0,0 km/h NO 10,4 C 31,1 C 0,0 km/h
23.06.2010 17:00 31,6 C 29 % 1017,5 hPa 0,0 l/m 5,8 km/h NW 11,4 C 31,6 C 3,2 km/h
23.06.2010 18:00 27,8 C 36 % 1017,2 hPa 0,0 l/m 3,9 km/h N-NO 11,3 C 27,8 C 2,2 km/h
23.06.2010 19:00 24,4 C 40 % 1017,3 hPa 0,0 l/m 18,8 km/h N-NO 9,9 C 22,0 C 10,4 km/h
23.06.2010 20:00 21,9 C 46 % 1017,3 hPa 0,0 l/m 9,1 km/h NO 9,7 C 21,0 C 5,0 km/h
23.06.2010 21:00 18,8 C 53 % 1017,5 hPa 0,0 l/m 0,0 km/h SO 9,0 C 18,8 C 0,0 km/h
23.06.2010 22:00 13,7 C 70 % 1018,1 hPa 0,0 l/m 0,0 km/h S-SO 8,3 C 13,7 C 0,0 km/h
23.06.2010 23:00 11,5 C 78 % 1018,2 hPa 0,0 l/m 0,0 km/h N-NO 7,8 C 11,5 C 0,0 km/h
24.06.2010 00:00 13,2 C 76 % 1018,0 hPa 0,0 l/m 0,0 km/h N-NO 9,1 C 13,2 C 0,0 km/h
24.06.2010 01:00 11,3 C 79 % 1017,9 hPa 0,0 l/m 5,2 km/h SO 7,8 C 11,3 C 2,9 km/h
24.06.2010 02:00 11,1 C 81 % 1017,7 hPa 0,0 l/m 6,5 km/h O 8,0 C 11,1 C 3,6 km/h
24.06.2010 03:00 11,1 C 81 % 1017,3 hPa 0,0 l/m 0,0 km/h NO 8,0 C 11,1 C 0,0 km/h
24.06.2010 04:00 10,4 C 81 % 1017,2 hPa 0,0 l/m 0,0 km/h NO 7,3 C 10,4 C 0,0 km/h
24.06.2010 05:00 9,0 C 86 % 1017,5 hPa 0,0 l/m 0,0 km/h NO 6,8 C 9,0 C 0,0 km/h
24.06.2010 06:00 9,1 C 87 % 1017,7 hPa 0,0 l/m 0,0 km/h SO 7,1 C 9,1 C 0,0 km/h
24.06.2010 07:00 12,1 C 83 % 1017,9 hPa 0,0 l/m 0,0 km/h W-NW 9,3 C 12,1 C 0,0 km/h
24.06.2010 08:00 22,0 C 54 % 1017,9 hPa 0,0 l/m 1,9 km/h W 12,3 C 22,0 C 1,1 km/h
24.06.2010 09:00 25,8 C 47 % 1017,8 hPa 0,0 l/m 0,0 km/h W 13,6 C 25,8 C 0,0 km/h
24.06.2010 10:00 26,8 C 44 % 1017,4 hPa 0,0 l/m 0,0 km/h NW 13,5 C 26,8 C 0,0 km/h
24.06.2010 11:00 28,1 C 43 % 1017,1 hPa 0,0 l/m 7,8 km/h W-NW 14,3 C 27,9 C 4,3 km/h
24.06.2010 12:00 26,5 C 41 % 1016,7 hPa 0,0 l/m 0,0 km/h NW 12,2 C 26,5 C 0,0 km/h
24.06.2010 13:00 27,0 C 42 % 1016,2 hPa 0,0 l/m 8,4 km/h NW 13,0 C 26,6 C 4,7 km/h
24.06.2010 14:00 27,2 C 41 % 1015,6 hPa 0,0 l/m 33,7 km/h W 12,8 C 24,7 C 18,7 km/h
24.06.2010 15:00 28,2 C 40 % 1015,4 hPa 0,0 l/m 18,8 km/h N 13,3 C 26,9 C 10,4 km/h
24.06.2010 16:00 30,8 C 34 % 1015,4 hPa 0,0 l/m 0,0 km/h W 13,1 C 30,8 C 0,0 km/h
24.06.2010 17:00 32,3 C 32 % 1014,9 hPa 0,0 l/m 11,7 km/h N 13,5 C 32,2 C 6,5 km/h
24.06.2010 18:00 30,5 C 33 % 1014,6 hPa 0,0 l/m 9,1 km/h N-NW 12,4 C 30,3 C 5,0 km/h
24.06.2010 19:00 27,2 C 37 % 1014,7 hPa 0,0 l/m 3,9 km/h N-NO 11,2 C 27,2 C 2,2 km/h
24.06.2010 20:00 23,4 C 47 % 1014,9 hPa 0,0 l/m 0,0 km/h SO 11,4 C 23,4 C 0,0 km/h
24.06.2010 21:00 19,1 C 62 % 1015,3 hPa 0,0 l/m 0,0 km/h SO 11,6 C 19,1 C 0,0 km/h
24.06.2010 22:00 15,1 C 73 % 1015,6 hPa 0,0 l/m 0,0 km/h O-NO 10,3 C 15,1 C 0,0 km/h
24.06.2010 23:00 14,5 C 77 % 1015,6 hPa 0,0 l/m 0,0 km/h NO 10,5 C 14,5 C 0,0 km/h
25.06.2010 00:00 13,9 C 80 % 1015,5 hPa 0,0 l/m 0,0 km/h NO 10,5 C 13,9 C 0,0 km/h
25.06.2010 01:00 13,8 C 79 % 1015,4 hPa 0,0 l/m 0,0 km/h S-SO 10,2 C 13,8 C 0,0 km/h
25.06.2010 02:00 12,3 C 82 % 1015,2 hPa 0,0 l/m 0,0 km/h NO 9,3 C 12,3 C 0,0 km/h
25.06.2010 03:00 11,4 C 84 % 1015,0 hPa 0,0 l/m 0,0 km/h O-NO 8,8 C 11,4 C 0,0 km/h
25.06.2010 04:00 11,3 C 85 % 1014,7 hPa 0,0 l/m 0,0 km/h O-NO 8,9 C 11,3 C 0,0 km/h
25.06.2010 05:00 10,7 C 86 % 1014,5 hPa 0,0 l/m 0,0 km/h O-SO 8,5 C 10,7 C 0,0 km/h
25.06.2010 06:00 11,2 C 86 % 1014,8 hPa 0,0 l/m 0,0 km/h S 8,9 C 11,2 C 0,0 km/h
25.06.2010 07:00 13,9 C 82 % 1014,8 hPa 0,0 l/m 0,0 km/h W-NW 10,9 C 13,9 C 0,0 km/h
25.06.2010 08:00 23,9 C 56 % 1014,7 hPa 0,0 l/m 0,0 km/h S-SW 14,6 C 23,9 C 0,0 km/h
25.06.2010 09:00 29,1 C 44 % 1014,8 hPa 0,0 l/m 0,0 km/h W 15,6 C 29,1 C 0,0 km/h
25.06.2010 10:00 28,7 C 44 % 1014,8 hPa 0,0 l/m 0,0 km/h W 15,2 C 28,7 C 0,0 km/h
25.06.2010 11:00 30,6 C 41 % 1014,3 hPa 0,0 l/m 0,0 km/h W-NW 15,8 C 30,6 C 0,0 km/h
25.06.2010 12:00 28,8 C 39 % 1014,0 hPa 0,0 l/m 0,0 km/h W-SW 13,4 C 28,8 C 0,0 km/h
25.06.2010 13:00 29,9 C 43 % 1013,7 hPa 0,0 l/m 0,0 km/h N-NW 15,9 C 29,9 C 0,0 km/h
25.06.2010 14:00 30,4 C 38 % 1013,2 hPa 0,0 l/m 0,0 km/h NW 14,5 C 30,4 C 0,0 km/h
25.06.2010 15:00 32,0 C 36 % 1012,8 hPa 0,0 l/m 12,3 km/h N 15,0 C 31,8 C 6,8 km/h
25.06.2010 16:00 34,2 C 31 % 1012,4 hPa 0,0 l/m 0,0 km/h N-NO 14,6 C 34,2 C 0,0 km/h
25.06.2010 17:00 34,9 C 30 % 1012,2 hPa 0,0 l/m 0,0 km/h N 14,7 C 34,9 C 0,0 km/h
25.06.2010 18:00 33,3 C 32 % 1011,8 hPa 0,0 l/m 0,0 km/h N-NW 14,3 C 33,3 C 0,0 km/h
25.06.2010 19:00 30,3 C 35 % 1011,8 hPa 0,0 l/m 0,0 km/h N-NO 13,1 C 30,3 C 0,0 km/h
25.06.2010 20:00 25,1 C 47 % 1011,9 hPa 0,0 l/m 0,0 km/h O-NO 13,0 C 25,1 C 0,0 km/h
25.06.2010 21:00 21,1 C 63 % 1012,4 hPa 0,0 l/m 0,0 km/h O 13,8 C 21,1 C 0,0 km/h
25.06.2010 22:00 17,1 C 73 % 1013,1 hPa 0,0 l/m 0,0 km/h SO 12,2 C 17,1 C 0,0 km/h
25.06.2010 23:00 16,1 C 77 % 1013,2 hPa 0,0 l/m 0,0 km/h O-NO 12,1 C 16,1 C 0,0 km/h
26.06.2010 00:00 15,1 C 80 % 1013,2 hPa 0,0 l/m 0,0 km/h NO 11,7 C 15,1 C 0,0 km/h
26.06.2010 01:00 14,2 C 83 % 1013,1 hPa 0,0 l/m 0,0 km/h O 11,4 C 14,2 C 0,0 km/h
26.06.2010 02:00 13,6 C 85 % 1013,3 hPa 0,0 l/m 0,0 km/h NO 11,1 C 13,6 C 0,0 km/h
26.06.2010 03:00 13,1 C 87 % 1013,2 hPa 0,0 l/m 0,0 km/h O-SO 11,0 C 13,1 C 0,0 km/h
26.06.2010 04:00 12,3 C 87 % 1013,1 hPa 0,0 l/m 0,0 km/h NO 10,2 C 12,3 C 0,0 km/h
26.06.2010 05:00 11,8 C 89 % 1013,2 hPa 0,0 l/m 0,0 km/h NO 10,0 C 11,8 C 0,0 km/h
26.06.2010 06:00 12,1 C 90 % 1013,6 hPa 0,0 l/m 0,0 km/h NO 10,5 C 12,1 C 0,0 km/h
26.06.2010 07:00 15,3 C 86 % 1014,0 hPa 0,0 l/m 0,0 km/h S-SW 13,0 C 15,3 C 0,0 km/h
26.06.2010 08:00 25,8 C 60 % 1014,3 hPa 0,0 l/m 0,0 km/h W-SW 17,4 C 25,8 C 0,0 km/h
26.06.2010 09:00 28,2 C 50 % 1014,0 hPa 0,0 l/m 0,0 km/h S-SW 16,8 C 28,2 C 0,0 km/h
26.06.2010 10:00 29,3 C 48 % 1013,6 hPa 0,0 l/m 0,0 km/h NO 17,1 C 29,3 C 0,0 km/h
26.06.2010 11:00 30,9 C 44 % 1013,6 hPa 0,0 l/m 0,0 km/h W-NW 17,2 C 30,9 C 0,0 km/h
26.06.2010 12:00 29,5 C 51 % 1013,5 hPa 0,0 l/m 1,9 km/h N-NW 18,3 C 29,5 C 1,1 km/h
26.06.2010 13:00 30,1 C 47 % 1012,9 hPa 0,0 l/m 8,4 km/h NW 17,5 C 29,9 C 4,7 km/h
26.06.2010 14:00 31,4 C 43 % 1012,4 hPa 0,0 l/m 2,6 km/h N 17,3 C 31,4 C 1,4 km/h
26.06.2010 15:00 30,8 C 43 % 1012,5 hPa 0,0 l/m 0,0 km/h N-NO 16,7 C 30,8 C 0,0 km/h
26.06.2010 16:00 34,2 C 37 % 1012,3 hPa 0,0 l/m 7,1 km/h N-NO 17,4 C 34,2 C 4,0 km/h
26.06.2010 17:00 28,6 C 44 % 1012,4 hPa 0,0 l/m 2,6 km/h SW 15,1 C 28,6 C 1,4 km/h
26.06.2010 18:00 29,0 C 50 % 1012,7 hPa 0,0 l/m 6,5 km/h SW 17,5 C 29,0 C 3,6 km/h
26.06.2010 19:00 29,2 C 54 % 1012,8 hPa 0,0 l/m 0,0 km/h S-SO 18,9 C 29,2 C 0,0 km/h
26.06.2010 20:00 24,7 C 64 % 1013,1 hPa 0,0 l/m 0,0 km/h S-SO 17,4 C 24,7 C 0,0 km/h
26.06.2010 21:00 22,3 C 70 % 1013,2 hPa 0,0 l/m 0,0 km/h O-SO 16,6 C 22,3 C 0,0 km/h
26.06.2010 22:00 19,5 C 79 % 1013,9 hPa 0,0 l/m 0,0 km/h O-SO 15,8 C 19,5 C 0,0 km/h
26.06.2010 23:00 17,9 C 84 % 1014,3 hPa 0,0 l/m 0,0 km/h O-SO 15,2 C 17,9 C 0,0 km/h
27.06.2010 00:00 16,6 C 88 % 1014,5 hPa 0,0 l/m 0,0 km/h O-SO 14,6 C 16,6 C 0,0 km/h
27.06.2010 01:00 16,2 C 88 % 1014,5 hPa 0,0 l/m 0,0 km/h SO 14,2 C 16,2 C 0,0 km/h
27.06.2010 02:00 14,8 C 89 % 1014,6 hPa 0,0 l/m 0,0 km/h SO 13,0 C 14,8 C 0,0 km/h
27.06.2010 03:00 13,9 C 90 % 1014,7 hPa 0,0 l/m 0,0 km/h SW 12,3 C 13,9 C 0,0 km/h
27.06.2010 04:00 13,6 C 91 % 1014,7 hPa 0,0 l/m 0,0 km/h S 12,2 C 13,6 C 0,0 km/h
27.06.2010 05:00 12,5 C 91 % 1015,2 hPa 0,0 l/m 0,0 km/h SO 11,1 C 12,5 C 0,0 km/h
27.06.2010 06:00 13,1 C 92 % 1015,4 hPa 0,0 l/m 0,0 km/h O 11,8 C 13,1 C 0,0 km/h
27.06.2010 07:00 15,8 C 93 % 1015,7 hPa 0,0 l/m 0,0 km/h SO 14,7 C 15,8 C 0,0 km/h
27.06.2010 08:00 26,6 C 62 % 1015,8 hPa 0,0 l/m 0,0 km/h NW 18,7 C 26,6 C 0,0 km/h
27.06.2010 09:00 27,4 C 53 % 1015,9 hPa 0,0 l/m 0,0 km/h N-NW 17,0 C 27,4 C 0,0 km/h
27.06.2010 10:00 29,1 C 49 % 1015,8 hPa 0,0 l/m 11,0 km/h W 17,3 C 28,6 C 6,1 km/h
27.06.2010 11:00 31,1 C 48 % 1015,9 hPa 0,0 l/m 0,0 km/h NW 18,8 C 31,1 C 0,0 km/h
27.06.2010 12:00 29,9 C 50 % 1015,7 hPa 0,0 l/m 0,6 km/h N-NW 18,3 C 29,9 C 0,4 km/h
27.06.2010 13:00 30,9 C 48 % 1015,5 hPa 0,0 l/m 5,2 km/h NW 18,6 C 30,9 C 2,9 km/h
27.06.2010 14:00 31,7 C 46 % 1015,1 hPa 0,0 l/m 4,5 km/h N-NW 18,6 C 31,7 C 2,5 km/h
27.06.2010 15:00 32,9 C 39 % 1014,9 hPa 0,0 l/m 20,1 km/h N-NO 17,1 C 32,9 C 11,2 km/h
27.06.2010 16:00 34,9 C 33 % 1014,9 hPa 0,0 l/m 7,8 km/h N-NW 16,2 C 34,9 C 4,3 km/h
27.06.2010 17:00 32,4 C 37 % 1014,6 hPa 0,0 l/m 0,0 km/h W-NW 15,8 C 32,4 C 0,0 km/h
27.06.2010 18:00 33,6 C 36 % 1014,5 hPa 0,0 l/m 7,8 km/h NO 16,4 C 33,6 C 4,3 km/h
27.06.2010 19:00 31,2 C 40 % 1014,5 hPa 0,0 l/m 0,0 km/h SO 16,0 C 31,2 C 0,0 km/h
27.06.2010 20:00 26,4 C 56 % 1014,8 hPa 0,0 l/m 0,0 km/h O-NO 16,9 C 26,4 C 0,0 km/h
27.06.2010 21:00 22,3 C 69 % 1015,2 hPa 0,0 l/m 0,0 km/h SO 16,3 C 22,3 C 0,0 km/h
27.06.2010 22:00 18,9 C 80 % 1015,5 hPa 0,0 l/m 0,0 km/h NO 15,4 C 18,9 C 0,0 km/h
27.06.2010 23:00 18,6 C 80 % 1015,9 hPa 0,0 l/m 0,0 km/h O-SO 15,1 C 18,6 C 0,0 km/h
Min-Datum _ 21.06.10 23.06.10 25.06.10 - 21.06.10 - 21.06.10 21.06.10 21.06.10
_ Min-Zeit 04:53 16:30 18:30 - 00:53 - 04:53 04:53 00:53
Minimum _ 5,1 C 28 % 1011,8 hPa - 0,0 km/h - 3,8 C 5,1 C 0,0 km/h
Max-Datum _ 25.06.10 21.06.10 22.06.10 21.06.10 24.06.10 - 26.06.10 25.06.10 24.06.10
_ Max-Zeit 17:30 07:53 23:30 00:53 14:30 - 19:30 17:30 14:30
Maximum _ 34,9 C 93 % 1021,0 hPa 0,0 l/m 33,7 km/h
W
- 18,9 C 34,9 C 18,7 km/h
W
Durchschnitt _ 19,9 C 63 % 1016,4 hPa #0,0 l/m 1,8 km/h NO 11,5 C 19,9 C 1,0 km/h